createdAt,value
2023-02-16T00:00:45.436Z,41.72
2023-02-16T00:03:18.030Z,44.85
2023-02-16T00:05:45.144Z,42.88
2023-02-16T00:08:12.165Z,41.85
2023-02-16T00:10:39.713Z,40.95
2023-02-16T00:13:44.969Z,45.17
2023-02-16T00:16:19.457Z,42.17
2023-02-16T00:18:46.959Z,41.75
2023-02-16T00:21:14.542Z,42.50
2023-02-16T00:23:41.850Z,38.45
2023-02-16T00:26:17.031Z,41.97
2023-02-16T00:28:44.288Z,42.78
2023-02-16T00:31:18.441Z,41.95
2023-02-16T00:33:45.632Z,42.08
2023-02-16T00:36:12.740Z,40.90
2023-02-16T00:38:39.829Z,41.15
2023-02-16T00:41:27.241Z,39.75
2023-02-16T00:43:55.106Z,36.33
2023-02-16T00:46:22.407Z,40.45
2023-02-16T00:48:49.514Z,47.35
2023-02-16T00:51:25.520Z,40.72
2023-02-16T00:53:53.321Z,38.78
2023-02-16T00:56:21.518Z,40.38
2023-02-16T00:58:50.264Z,42.40
2023-02-16T01:01:18.335Z,42.65
2023-02-16T01:03:45.521Z,38.38
2023-02-16T01:06:31.414Z,37.92
2023-02-16T01:09:30.756Z,40.20
2023-02-16T01:11:58.127Z,43.63
2023-02-16T01:14:25.692Z,43.80
2023-02-16T01:16:52.768Z,37.17
2023-02-16T01:19:19.787Z,40.72
2023-02-16T01:21:46.782Z,43.13
2023-02-16T01:24:13.858Z,39.78
2023-02-16T01:26:42.635Z,39.58
2023-02-16T01:29:14.795Z,39.90
2023-02-16T01:31:41.963Z,43.97
2023-02-16T01:34:09.141Z,47.22
2023-02-16T01:36:43.722Z,41.63
2023-02-16T01:39:15.510Z,40.88
2023-02-16T01:41:42.506Z,42.50
2023-02-16T01:44:23.906Z,43.38
2023-02-16T01:46:53.730Z,40.65
2023-02-16T01:49:21.476Z,41.53
2023-02-16T01:51:48.465Z,40.80
2023-02-16T01:54:32.209Z,39.38
2023-02-16T01:57:06.975Z,39.63
2023-02-16T01:59:41.734Z,45.15
2023-02-16T02:02:28.176Z,40.60
2023-02-16T02:05:16.869Z,41.63
2023-02-16T02:07:49.755Z,42.13
2023-02-16T02:10:26.635Z,43.38
2023-02-16T02:12:56.740Z,39.80
2023-02-16T02:15:25.343Z,43.45
2023-02-16T02:17:52.506Z,38.85
2023-02-16T02:21:01.040Z,40.45
2023-02-16T02:23:43.862Z,41.60
2023-02-16T02:26:34.153Z,41.08
2023-02-16T02:29:01.159Z,40.42
2023-02-16T02:31:37.351Z,39.72
2023-02-16T02:34:18.529Z,41.53
2023-02-16T02:36:57.415Z,41.78
2023-02-16T02:39:33.002Z,43.90
2023-02-16T02:42:11.605Z,44.40
2023-02-16T02:44:42.635Z,39.20
2023-02-16T02:47:09.770Z,40.70
2023-02-16T02:49:36.972Z,42.53
2023-02-16T02:52:04.365Z,41.13
2023-02-16T02:54:55.400Z,39.05
2023-02-16T02:57:44.287Z,40.92
2023-02-16T03:00:32.765Z,40.33
2023-02-16T03:03:02.155Z,41.35
2023-02-16T03:05:31.043Z,46.47
2023-02-16T03:08:06.518Z,43.35
2023-02-16T03:10:54.788Z,36.60
2023-02-16T03:13:24.072Z,37.03
2023-02-16T03:15:55.753Z,40.80
2023-02-16T03:18:43.601Z,39.58
2023-02-16T03:21:30.955Z,39.92
2023-02-16T03:24:17.282Z,39.38
2023-02-16T03:27:03.149Z,40.50
2023-02-16T03:29:30.397Z,37.97
2023-02-16T03:31:57.868Z,39.60
2023-02-16T03:34:25.141Z,36.17
2023-02-16T03:36:58.392Z,40.28
2023-02-16T03:39:26.499Z,37.67
2023-02-16T03:41:54.731Z,37.80
2023-02-16T03:44:21.888Z,41.38
2023-02-16T03:46:49.549Z,40.92
2023-02-16T03:49:17.122Z,37.70
2023-02-16T03:51:45.107Z,36.97
2023-02-16T03:54:12.612Z,41.15
2023-02-16T03:56:39.656Z,39.17
2023-02-16T03:59:06.742Z,38.13
2023-02-16T04:01:33.771Z,36.83
2023-02-16T04:04:00.850Z,33.92
2023-02-16T04:06:27.954Z,39.70
2023-02-16T04:08:55.090Z,38.22
2023-02-16T04:11:40.863Z,40.33
2023-02-16T04:14:07.927Z,39.03
2023-02-16T04:16:34.922Z,34.88
2023-02-16T04:19:02.013Z,40.80
2023-02-16T04:21:29.076Z,33.92
2023-02-16T04:23:56.087Z,38.47
2023-02-16T04:26:23.123Z,39.75
2023-02-16T04:28:50.088Z,39.72
2023-02-16T04:31:17.204Z,38.08
2023-02-16T04:33:44.304Z,37.05
2023-02-16T04:36:11.304Z,34.83
2023-02-16T04:38:38.392Z,40.28
2023-02-16T04:41:05.737Z,35.92
2023-02-16T04:43:33.424Z,35.72
2023-02-16T04:46:00.870Z,34.63
2023-02-16T04:48:27.937Z,38.22
2023-02-16T04:50:55.051Z,37.15
2023-02-16T04:53:22.158Z,37.45
2023-02-16T04:55:50.055Z,36.70
2023-02-16T04:58:17.570Z,34.38
2023-02-16T05:00:44.664Z,42.78
2023-02-16T05:03:11.781Z,34.88
2023-02-16T05:05:38.817Z,35.47
2023-02-16T05:08:05.885Z,33.40
2023-02-16T05:10:32.924Z,34.08
2023-02-16T05:13:19.489Z,38.20
2023-02-16T05:15:46.684Z,38.88
2023-02-16T05:18:14.183Z,33.35
2023-02-16T05:20:59.789Z,34.20
2023-02-16T05:23:26.776Z,39.03
2023-02-16T05:25:53.823Z,35.78
2023-02-16T05:28:20.897Z,36.42
2023-02-16T05:30:48.042Z,35.97
2023-02-16T05:33:15.082Z,36.72
2023-02-16T05:35:42.117Z,40.03
2023-02-16T05:38:09.270Z,34.38
2023-02-16T05:40:36.372Z,36.28
2023-02-16T05:43:03.416Z,33.65
2023-02-16T05:45:30.636Z,33.97
2023-02-16T05:47:57.755Z,33.75
2023-02-16T05:50:24.749Z,37.17
2023-02-16T05:52:51.769Z,32.75
2023-02-16T05:55:18.881Z,31.65
2023-02-16T05:57:46.104Z,35.67
2023-02-16T06:00:13.391Z,31.55
2023-02-16T06:02:40.464Z,30.38
2023-02-16T06:05:07.775Z,31.17
2023-02-16T06:07:34.843Z,31.13
2023-02-16T06:10:01.891Z,32.60
2023-02-16T06:12:28.889Z,29.88
2023-02-16T06:14:55.944Z,29.83
2023-02-16T06:17:22.985Z,37.47
2023-02-16T06:19:50.069Z,29.95
2023-02-16T06:22:17.077Z,30.80
2023-02-16T06:24:44.391Z,32.47
2023-02-16T06:27:11.427Z,30.88
2023-02-16T06:29:38.467Z,30.40
2023-02-16T06:32:05.765Z,27.52
2023-02-16T06:34:32.979Z,27.13
2023-02-16T06:36:59.986Z,26.52
2023-02-16T06:39:26.999Z,29.42
2023-02-16T06:41:54.065Z,28.55
2023-02-16T06:44:21.170Z,28.40
2023-02-16T06:46:48.897Z,30.85
2023-02-16T06:49:20.956Z,22.52
2023-02-16T06:51:49.070Z,25.08
2023-02-16T06:54:16.205Z,24.45
2023-02-16T06:56:43.572Z,31.48
2023-02-16T06:59:11.817Z,29.85
2023-02-16T07:01:39.004Z,27.08
2023-02-16T07:04:06.132Z,26.02
2023-02-16T07:06:33.152Z,27.63
2023-02-16T07:09:00.222Z,28.13
2023-02-16T07:11:27.440Z,25.65
2023-02-16T07:13:54.485Z,26.83
2023-02-16T07:16:21.901Z,30.33
2023-02-16T07:18:49.097Z,30.95
2023-02-16T07:21:16.196Z,25.38
2023-02-16T07:23:43.259Z,25.90
2023-02-16T07:26:10.377Z,26.80
2023-02-16T07:28:37.470Z,34.10
2023-02-16T07:31:08.665Z,24.90
2023-02-16T07:33:35.903Z,24.95
2023-02-16T07:36:02.979Z,24.48
2023-02-16T07:38:30.777Z,26.50
2023-02-16T07:40:58.472Z,30.75
2023-02-16T07:43:26.157Z,26.85
2023-02-16T07:45:53.491Z,27.73
2023-02-16T07:48:20.762Z,27.75
2023-02-16T07:50:47.790Z,27.70
2023-02-16T07:53:14.910Z,25.95
2023-02-16T07:55:45.892Z,25.65
2023-02-16T07:58:27.046Z,22.35
2023-02-16T08:01:07.940Z,25.88
2023-02-16T08:03:35.278Z,25.00
2023-02-16T08:06:02.646Z,25.20
2023-02-16T08:08:29.691Z,28.55
2023-02-16T08:10:56.747Z,26.35
2023-02-16T08:13:23.990Z,23.90
2023-02-16T08:15:51.010Z,23.50
2023-02-16T08:18:18.166Z,23.38
2023-02-16T08:21:02.786Z,31.08
2023-02-16T08:23:31.308Z,34.30
2023-02-16T08:25:58.946Z,24.23
2023-02-16T08:28:28.611Z,27.52
2023-02-16T08:30:56.135Z,22.33
2023-02-16T08:33:23.314Z,25.30
2023-02-16T08:35:50.377Z,24.35
2023-02-16T08:38:17.409Z,24.08
2023-02-16T08:40:48.613Z,23.83
2023-02-16T08:43:15.729Z,27.60
2023-02-16T08:45:47.572Z,22.80
2023-02-16T08:48:14.943Z,28.85
2023-02-16T08:50:53.452Z,26.92
2023-02-16T08:53:25.126Z,24.17
2023-02-16T08:55:52.946Z,33.25
2023-02-16T08:58:20.021Z,24.55
2023-02-16T09:00:47.302Z,22.15
2023-02-16T09:03:14.372Z,25.95
2023-02-16T09:05:41.986Z,28.88
2023-02-16T09:08:09.021Z,29.50
2023-02-16T09:10:36.058Z,24.80
2023-02-16T09:13:03.336Z,27.48
2023-02-16T09:15:30.362Z,20.08
2023-02-16T09:17:57.848Z,22.30
2023-02-16T09:20:24.938Z,19.63
2023-02-16T09:22:53.110Z,20.85
2023-02-16T09:25:20.420Z,22.00
2023-02-16T09:27:47.431Z,17.45
2023-02-16T09:30:14.691Z,20.73
2023-02-16T09:32:42.485Z,20.58
2023-02-16T09:35:09.533Z,19.30
2023-02-16T09:37:36.600Z,18.17
2023-02-16T09:40:05.040Z,21.70
2023-02-16T09:42:45.292Z,17.35
2023-02-16T09:45:14.122Z,17.88
2023-02-16T09:47:42.889Z,21.20
2023-02-16T09:50:13.223Z,25.50
2023-02-16T09:52:41.786Z,24.92
2023-02-16T09:55:12.270Z,20.63
2023-02-16T09:57:55.651Z,25.13
2023-02-16T10:00:28.820Z,21.42
2023-02-16T10:03:14.416Z,23.48
2023-02-16T10:06:01.028Z,21.15
2023-02-16T10:08:34.103Z,24.30
2023-02-16T10:11:38.620Z,24.80
2023-02-16T10:14:24.523Z,25.40
2023-02-16T10:17:12.388Z,23.02
2023-02-16T10:19:58.318Z,20.33
2023-02-16T10:22:33.990Z,24.98
2023-02-16T10:25:12.932Z,19.92
2023-02-16T10:27:48.997Z,24.15
2023-02-16T10:30:16.542Z,20.88
2023-02-16T10:33:03.932Z,19.65
2023-02-16T10:35:47.732Z,21.38
2023-02-16T10:38:18.186Z,23.20
2023-02-16T10:40:56.305Z,21.08
2023-02-16T10:43:23.812Z,19.33
2023-02-16T10:45:54.900Z,23.50
2023-02-16T10:48:23.045Z,20.33
2023-02-16T10:50:50.196Z,20.60
2023-02-16T10:53:20.446Z,20.60
2023-02-16T10:55:47.521Z,20.23
2023-02-16T10:58:17.711Z,22.08
2023-02-16T11:00:53.990Z,20.95
2023-02-16T11:03:24.220Z,23.27
2023-02-16T11:05:53.304Z,22.55
2023-02-16T11:08:20.495Z,20.25
2023-02-16T11:10:51.780Z,22.48
2023-02-16T11:13:26.932Z,24.23
2023-02-16T11:15:55.907Z,19.20
2023-02-16T11:18:28.763Z,20.77
2023-02-16T11:20:56.218Z,18.90
2023-02-16T11:23:26.702Z,16.67
2023-02-16T11:25:58.328Z,20.25
2023-02-16T11:28:32.362Z,17.95
2023-02-16T11:31:19.738Z,20.55
2023-02-16T11:34:05.815Z,18.42
2023-02-16T11:36:39.341Z,21.00
2023-02-16T11:39:15.362Z,18.83
2023-02-16T11:41:51.783Z,19.35
2023-02-16T11:44:28.130Z,17.58
2023-02-16T11:46:57.178Z,18.73
2023-02-16T11:49:34.938Z,17.15
2023-02-16T11:52:02.212Z,16.25
2023-02-16T11:54:29.222Z,18.67
2023-02-16T11:57:03.820Z,17.40
2023-02-16T11:59:35.373Z,17.27
2023-02-16T12:02:02.463Z,15.60
2023-02-16T12:04:43.445Z,18.58
2023-02-16T12:07:23.036Z,15.32
2023-02-16T12:09:50.706Z,18.80
2023-02-16T12:12:37.994Z,16.98
2023-02-16T12:15:23.573Z,14.75
2023-02-16T12:17:57.007Z,15.68
2023-02-16T12:20:36.446Z,18.88
2023-02-16T12:23:17.145Z,18.58
2023-02-16T12:26:03.235Z,22.38
2023-02-16T12:28:43.016Z,21.10
2023-02-16T12:31:28.595Z,15.93
2023-02-16T12:34:10.779Z,17.52
2023-02-16T12:36:56.531Z,19.45
2023-02-16T12:39:49.014Z,14.15
2023-02-16T12:42:16.047Z,15.30
2023-02-16T12:44:46.737Z,21.92
2023-02-16T12:47:18.122Z,17.30
2023-02-16T12:49:52.585Z,17.45
2023-02-16T12:52:22.556Z,14.98
2023-02-16T12:54:52.278Z,15.38
2023-02-16T12:57:21.224Z,18.77
2023-02-16T12:59:50.513Z,19.17
2023-02-16T13:02:17.495Z,15.48
2023-02-16T13:04:46.497Z,23.70
2023-02-16T13:07:18.148Z,16.85
2023-02-16T13:09:46.110Z,14.60
2023-02-16T13:12:16.566Z,16.17
2023-02-16T13:14:46.055Z,17.33
2023-02-16T13:17:18.523Z,18.02
2023-02-16T13:19:47.031Z,18.45
2023-02-16T13:22:29.165Z,16.83
2023-02-16T13:24:59.059Z,16.25
2023-02-16T13:27:42.683Z,21.55
2023-02-16T13:30:15.824Z,18.38
2023-02-16T13:32:54.988Z,14.27
2023-02-16T13:35:22.690Z,16.67
2023-02-16T13:37:49.671Z,17.52
2023-02-16T13:40:22.550Z,20.33
2023-02-16T13:42:52.405Z,15.85
2023-02-16T13:45:21.757Z,14.40
2023-02-16T13:47:49.189Z,17.05
2023-02-16T13:50:24.837Z,16.60
2023-02-16T13:52:53.202Z,15.65
2023-02-16T13:55:27.055Z,14.68
2023-02-16T14:00:28.956Z,15.60
2023-02-16T14:02:58.610Z,14.73
2023-02-16T14:05:28.670Z,15.73
2023-02-16T14:08:10.809Z,16.48
2023-02-16T14:10:55.965Z,16.52
2023-02-16T14:13:33.744Z,14.27
2023-02-16T14:16:06.337Z,14.25
2023-02-16T14:18:38.864Z,16.17
2023-02-16T14:21:07.750Z,15.70
2023-02-16T14:23:35.957Z,13.95
2023-02-16T14:26:04.752Z,13.32
2023-02-16T14:28:31.973Z,14.98
2023-02-16T14:31:00.486Z,15.43
2023-02-16T14:33:46.276Z,14.90
2023-02-16T14:36:21.115Z,14.25
2023-02-16T14:38:49.525Z,15.10
2023-02-16T14:41:33.475Z,14.45
2023-02-16T14:44:06.472Z,15.75
2023-02-16T14:46:52.076Z,12.02
2023-02-16T14:49:35.680Z,14.32
2023-02-16T14:52:21.561Z,9.93
2023-02-16T14:55:07.312Z,15.60
2023-02-16T14:57:57.380Z,12.40
2023-02-16T15:00:35.739Z,15.13
2023-02-16T15:03:05.636Z,14.80
2023-02-16T15:05:37.733Z,16.42
2023-02-16T15:08:18.231Z,13.35
2023-02-16T15:10:46.443Z,12.82
2023-02-16T15:13:24.376Z,14.10
2023-02-16T15:15:55.879Z,10.85
2023-02-16T15:18:24.388Z,16.17
2023-02-16T15:20:53.137Z,14.23
2023-02-16T15:23:24.882Z,12.57
2023-02-16T15:25:56.404Z,13.13
2023-02-16T15:28:29.307Z,13.93
2023-02-16T15:30:58.385Z,14.85
2023-02-16T15:33:25.491Z,17.05
2023-02-16T15:35:53.839Z,17.55
2023-02-16T15:38:23.594Z,11.20
2023-02-16T15:40:54.738Z,18.08
2023-02-16T15:43:22.266Z,15.00
2023-02-16T15:45:52.529Z,20.13
2023-02-16T15:48:30.529Z,13.75
2023-02-16T15:51:08.826Z,14.57
2023-02-16T15:53:44.257Z,13.07
2023-02-16T15:56:43.525Z,19.73
2023-02-16T15:59:16.462Z,18.08
2023-02-16T16:01:43.587Z,15.05
2023-02-16T16:04:19.693Z,14.25
2023-02-16T16:06:48.172Z,17.73
2023-02-16T16:09:22.790Z,11.07
2023-02-16T16:11:51.753Z,17.40
2023-02-16T16:14:18.881Z,13.60
2023-02-16T16:16:46.349Z,15.25
2023-02-16T16:19:20.976Z,13.93
2023-02-16T16:21:51.278Z,17.00
2023-02-16T16:24:32.499Z,13.20
2023-02-16T16:27:00.369Z,12.43
2023-02-16T16:29:41.318Z,12.40
2023-02-16T16:32:28.802Z,18.63
2023-02-16T16:34:56.041Z,16.00
2023-02-16T16:37:26.322Z,15.43
2023-02-16T16:40:01.406Z,20.05
2023-02-16T16:42:28.720Z,15.43
2023-02-16T16:44:57.479Z,14.70
2023-02-16T16:47:29.081Z,18.13
2023-02-16T16:50:01.003Z,15.65
2023-02-16T16:52:31.175Z,21.52
2023-02-16T16:54:58.212Z,22.88
2023-02-16T16:57:25.251Z,21.52
2023-02-16T16:59:52.307Z,21.90
2023-02-16T17:02:19.323Z,17.60
2023-02-16T17:04:46.399Z,20.38
2023-02-16T17:07:13.416Z,18.25
2023-02-16T17:09:40.532Z,19.92
2023-02-16T17:12:07.610Z,19.65
2023-02-16T17:14:34.653Z,19.75
2023-02-16T17:17:01.748Z,22.85
2023-02-16T17:19:29.450Z,18.42
2023-02-16T17:21:56.464Z,19.13
2023-02-16T17:24:23.543Z,18.88
2023-02-16T17:26:50.669Z,15.98
2023-02-16T17:29:17.798Z,19.25
2023-02-16T17:31:44.962Z,19.90
2023-02-16T17:34:12.051Z,16.40
2023-02-16T17:36:39.160Z,18.52
2023-02-16T17:39:07.194Z,20.48
2023-02-16T17:41:34.256Z,21.10
2023-02-16T17:44:01.327Z,18.42
2023-02-16T17:46:28.983Z,21.25
2023-02-16T17:48:56.097Z,19.50
2023-02-16T17:51:24.566Z,20.42
2023-02-16T17:53:52.004Z,20.45
2023-02-16T17:56:20.870Z,16.42
2023-02-16T17:58:47.924Z,17.50
2023-02-16T18:01:15.968Z,17.02
2023-02-16T18:03:43.112Z,21.67
2023-02-16T18:06:13.502Z,14.43
2023-02-16T18:08:40.506Z,15.93
2023-02-16T18:11:07.554Z,17.02
2023-02-16T18:13:34.632Z,15.88
2023-02-16T18:16:03.800Z,15.57
2023-02-16T18:18:32.842Z,16.75
2023-02-16T18:20:59.937Z,16.92
2023-02-16T18:23:26.976Z,17.58
2023-02-16T18:25:54.082Z,18.17
2023-02-16T18:28:25.823Z,18.92
2023-02-16T18:30:52.918Z,19.20
2023-02-16T18:33:24.283Z,18.42
2023-02-16T18:35:52.399Z,18.13
2023-02-16T18:38:21.821Z,18.73
2023-02-16T18:40:49.033Z,17.38
2023-02-16T18:43:16.084Z,16.50
2023-02-16T18:45:43.085Z,17.58
2023-02-16T18:48:10.349Z,20.52
2023-02-16T18:50:37.363Z,25.27
2023-02-16T18:53:04.731Z,27.92
2023-02-16T18:55:35.686Z,26.40
2023-02-16T18:58:06.708Z,20.10
2023-02-16T19:00:34.858Z,20.50
2023-02-16T19:03:02.526Z,19.98
2023-02-16T19:05:29.741Z,22.48
2023-02-16T19:07:56.782Z,20.67
2023-02-16T19:10:25.097Z,19.35
2023-02-16T19:12:52.294Z,19.10
2023-02-16T19:15:19.465Z,22.27
2023-02-16T19:17:46.553Z,18.13
2023-02-16T19:20:17.926Z,18.52
2023-02-16T19:22:45.763Z,19.67
2023-02-16T19:25:12.829Z,18.45
2023-02-16T19:27:39.840Z,20.80
2023-02-16T19:30:07.155Z,18.60
2023-02-16T19:32:34.192Z,19.63
2023-02-16T19:35:01.270Z,20.92
2023-02-16T19:37:28.252Z,18.50
2023-02-16T19:39:55.388Z,16.92
2023-02-16T19:42:22.468Z,22.88
2023-02-16T19:44:49.507Z,17.13
2023-02-16T19:47:17.760Z,21.73
2023-02-16T19:49:45.518Z,16.65
2023-02-16T19:52:12.619Z,20.77
2023-02-16T19:54:39.894Z,20.55
2023-02-16T19:57:07.013Z,19.92
2023-02-16T19:59:34.138Z,16.25
2023-02-16T20:02:02.520Z,17.77
2023-02-16T20:04:29.543Z,17.95
2023-02-16T20:06:56.713Z,21.88
2023-02-16T20:09:23.856Z,17.70
2023-02-16T20:11:51.754Z,19.65
2023-02-16T20:14:18.925Z,21.55
2023-02-16T20:16:46.285Z,18.85
2023-02-16T20:19:13.339Z,19.60
2023-02-16T20:21:44.013Z,21.92
2023-02-16T20:24:11.525Z,21.73
2023-02-16T20:26:40.589Z,18.65
2023-02-16T20:29:08.256Z,18.33
2023-02-16T20:31:39.860Z,17.58
2023-02-16T20:34:07.322Z,18.52
2023-02-16T20:36:35.381Z,15.88
2023-02-16T20:39:02.681Z,17.88
2023-02-16T20:41:29.694Z,19.40
2023-02-16T20:43:56.754Z,21.27
2023-02-16T20:46:24.674Z,18.17
2023-02-16T20:48:51.864Z,18.00
2023-02-16T20:51:19.467Z,19.60
2023-02-16T20:53:46.943Z,21.50
2023-02-16T20:56:15.600Z,20.48
2023-02-16T20:58:44.135Z,18.15
2023-02-16T21:01:12.935Z,18.88
2023-02-16T21:03:40.207Z,18.67
2023-02-16T21:06:07.488Z,16.63
2023-02-16T21:08:34.870Z,23.65
2023-02-16T21:11:01.906Z,14.95
2023-02-16T21:13:28.995Z,17.08
2023-02-16T21:15:56.229Z,16.88
2023-02-16T21:18:23.378Z,18.40
2023-02-16T21:20:51.301Z,17.17
2023-02-16T21:23:18.826Z,14.50
2023-02-16T21:25:45.857Z,17.42
2023-02-16T21:28:13.122Z,18.33
2023-02-16T21:30:41.457Z,19.98
2023-02-16T21:33:08.481Z,17.60
2023-02-16T21:35:35.526Z,16.48
2023-02-16T21:38:02.600Z,16.13
2023-02-16T21:40:48.346Z,15.98
2023-02-16T21:43:15.412Z,16.55
2023-02-16T21:45:42.550Z,15.35
2023-02-16T21:48:29.677Z,16.35
2023-02-16T21:50:56.914Z,17.60
2023-02-16T21:53:23.982Z,20.10
2023-02-16T21:56:09.517Z,16.83
2023-02-16T21:58:36.565Z,23.45
2023-02-16T22:01:03.652Z,18.08
2023-02-16T22:03:30.886Z,16.55
2023-02-16T22:06:02.335Z,14.65
2023-02-16T22:08:29.777Z,15.30
2023-02-16T22:10:56.826Z,20.70
2023-02-16T22:13:23.860Z,16.23
2023-02-16T22:15:50.923Z,17.00
2023-02-16T22:18:17.924Z,17.23
2023-02-16T22:20:45.036Z,14.77
2023-02-16T22:23:12.342Z,16.27
2023-02-16T22:25:40.561Z,14.43
2023-02-16T22:28:07.618Z,15.00
2023-02-16T22:30:34.662Z,13.68
2023-02-16T22:33:01.701Z,15.93
2023-02-16T22:35:28.872Z,15.50
2023-02-16T22:37:56.066Z,17.05
2023-02-16T22:40:23.126Z,13.77
2023-02-16T22:42:50.126Z,15.82
2023-02-16T22:45:17.204Z,16.23
2023-02-16T22:47:44.217Z,16.60
2023-02-16T22:50:11.495Z,14.80
2023-02-16T22:52:38.559Z,15.23
2023-02-16T22:55:06.214Z,16.92
2023-02-16T22:57:37.215Z,19.73
2023-02-16T23:00:09.298Z,18.50
2023-02-16T23:02:37.644Z,15.38
2023-02-16T23:05:05.524Z,16.33
2023-02-16T23:07:33.289Z,16.60
2023-02-16T23:10:00.316Z,14.32
2023-02-16T23:12:27.653Z,14.75
2023-02-16T23:14:54.776Z,16.67
2023-02-16T23:17:21.759Z,16.45
2023-02-16T23:19:50.747Z,19.05
2023-02-16T23:22:17.910Z,15.43
2023-02-16T23:24:45.010Z,18.70
2023-02-16T23:27:12.087Z,14.65
2023-02-16T23:29:39.120Z,15.85
2023-02-16T23:32:06.519Z,17.05
2023-02-16T23:34:33.530Z,17.45
2023-02-16T23:37:00.552Z,16.60
2023-02-16T23:39:27.603Z,18.42
2023-02-16T23:41:54.900Z,15.98
2023-02-16T23:44:21.902Z,15.30
2023-02-16T23:46:48.956Z,15.60
2023-02-16T23:49:16.003Z,17.63
2023-02-16T23:51:43.762Z,15.90
2023-02-16T23:54:11.662Z,15.52
2023-02-16T23:56:40.436Z,16.25
2023-02-16T23:59:07.432Z,18.42
